Time;durP1;ratioP1;P1;durP2;ratioP2;P2;SDS_P1;SDS_P2;PMS_P1;PMS_P2;Temp;Humidity;BMP_temperature;BMP_pressure;BME280_temperature;BME280_humidity;BME280_pressure;Samples;Min_cycle;Max_cycle;Signal;HPM_P1;HPM_P2
2022/04/01 00:00:11;;;;;;;;;;;;;;;;;;6057959;23;19948;-87
2022/04/01 00:02:59;;;;;;;;;;;;;;;;;;6084247;23;19932;-87
2022/04/01 00:05:26;;;;;;;;;;;;;;;;;;6068700;23;20250;-86
2022/04/01 00:07:54;;;;;;;;;;;;;;;;;;6095469;23;20262;-87
2022/04/01 00:10:21;;;;;;;;;;;;;;;;;;6093002;23;19928;-87
2022/04/01 00:12:48;;;;;;;;;;;;;;;;;;6097195;23;19952;-86
2022/04/01 00:15:15;;;;;;;;;;;;;;;;;;6094608;23;19932;-86
2022/04/01 00:17:43;;;;;;;;;;;;;;;;;;6118111;23;20008;-87
2022/04/01 00:20:09;;;;;;;;;;;;;;;;;;6093806;23;19927;-86
2022/04/01 00:22:36;;;;;;;;;;;;;;;;;;6130932;23;19963;-86
2022/04/01 00:25:03;;;;;;;;;;;;;;;;;;6177807;23;20119;-86
2022/04/01 00:27:30;;;;;;;;;;;;;;;;;;6179480;23;20030;-87
2022/04/01 00:29:58;;;;;;;;;;;;;;;;;;6178517;23;19994;-86
2022/04/01 00:32:24;;;;;;;;;;;;;;;;;;6177218;23;20197;-86
2022/04/01 00:34:52;;;;;;;;;;;;;;;;;;6178988;23;20284;-86
2022/04/01 00:37:38;;;;;;;;;;;;;;;;;;6174338;23;19920;-86
2022/04/01 00:40:05;;;;;;;;;;;;;;;;;;6124857;23;19920;-87
2022/04/01 00:42:33;;;;;;;;;;;;;;;;;;6149148;23;19944;-87
2022/04/01 00:45:00;;;;;;;;;;;;;;;;;;6125809;23;19920;-86
2022/04/01 00:47:27;;;;;;;;;;;;;;;;;;6126081;23;19927;-87
2022/04/01 00:49:55;;;;;;;;;;;;;;;;;;6151564;23;20332;-87
2022/04/01 00:52:22;;;;;;;;;;;;;;;;;;6150533;23;19921;-87
2022/04/01 00:54:49;;;;;;;;;;;;;;;;;;6126784;23;19979;-87
2022/04/01 00:57:18;;;;;;;;;;;;;;;;;;6150096;23;20420;-87
2022/04/01 00:59:45;;;;;;;;;;;;;;;;;;6149985;23;20246;-86
2022/04/01 01:02:14;;;;;;;;;;;;;;;;;;6124217;23;19990;-87
2022/04/01 01:04:41;;;;;;;;;;;;;;;;;;6172634;23;19920;-86
2022/04/01 01:07:07;;;;;;;;;;;;;;;;;;6148601;23;19932;-86
2022/04/01 01:09:34;;;;;;;;;;;;;;;;;;6148781;23;19920;-87
2022/04/01 01:12:03;;;;;;;;;;;;;;;;;;6123606;23;19995;-88
2022/04/01 01:14:44;;;;;;;;;;;;;;;;;;6152279;23;19974;-86
2022/04/01 01:17:14;;;;;;;;;;;;;;;;;;6172775;23;19922;-86
2022/04/01 01:19:41;;;;;;;;;;;;;;;;;;6124785;23;20353;-86
2022/04/01 01:22:08;;;;;;;;;;;;;;;;;;6168862;23;19928;-87
2022/04/01 01:24:35;;;;;;;;;;;;;;;;;;6178037;23;19919;-87
2022/04/01 01:27:01;;;;;;;;;;;;;;;;;;6202224;23;19974;-87
2022/04/01 01:29:28;;;;;;;;;;;;;;;;;;6177649;23;19923;-86
2022/04/01 01:31:55;;;;;;;;;;;;;;;;;;6178598;23;19927;-86
2022/04/01 01:34:28;;;;;;;;;;;;;;;;;;6176991;23;20741;-87
2022/04/01 01:36:56;;;;;;;;;;;;;;;;;;6179810;23;19920;-86
2022/04/01 01:39:24;;;;;;;;;;;;;;;;;;6177753;23;19930;-85
2022/04/01 01:41:53;;;;;;;;;;;;;;;;;;6176784;23;20605;-86
2022/04/01 01:44:20;;;;;;;;;;;;;;;;;;6174804;23;20350;-86
2022/04/01 01:46:47;;;;;;;;;;;;;;;;;;6177046;23;20285;-86
2022/04/01 01:49:13;;;;;;;;;;;;;;;;;;6179078;23;19916;-86
2022/04/01 01:54:49;;;;;;;;;;;;;;;;;;6177619;23;19931;-88
2022/04/01 01:57:17;;;;;;;;;;;;;;;;;;6176633;23;19924;-87
2022/04/01 01:59:44;;;;;;;;;;;;;;;;;;6178117;23;19920;-87
2022/04/01 02:02:11;;;;;;;;;;;;;;;;;;6176766;23;19920;-87
2022/04/01 02:04:39;;;;;;;;;;;;;;;;;;6178374;23;19920;-87
2022/04/01 02:07:22;;;;;;;;;;;;;;;;;;6133075;23;19991;-87
2022/04/01 02:09:51;;;;;;;;;;;;;;;;;;6136490;23;19931;-87
2022/04/01 02:12:18;;;;;;;;;;;;;;;;;;6086600;23;19925;-87
2022/04/01 02:14:45;;;;;;;;;;;;;;;;;;6086918;23;19921;-87
2022/04/01 02:17:12;;;;;;;;;;;;;;;;;;6160183;23;19921;-87
2022/04/01 02:19:38;;;;;;;;;;;;;;;;;;6161015;23;20016;-87
2022/04/01 02:22:05;;;;;;;;;;;;;;;;;;6161403;23;19983;-87
2022/04/01 02:24:31;;;;;;;;;;;;;;;;;;6161964;23;19932;-87
2022/04/01 02:26:58;;;;;;;;;;;;;;;;;;6136377;23;19930;-86
2022/04/01 02:29:26;;;;;;;;;;;;;;;;;;6161205;23;19953;-86
2022/04/01 02:31:53;;;;;;;;;;;;;;;;;;6087071;23;19917;-86
2022/04/01 02:34:20;;;;;;;;;;;;;;;;;;6085946;23;19925;-86
2022/04/01 02:36:47;;;;;;;;;;;;;;;;;;6163497;23;20261;-86
2022/04/01 02:39:13;;;;;;;;;;;;;;;;;;6165857;23;20343;-86
2022/04/01 02:41:42;;;;;;;;;;;;;;;;;;6206971;23;19924;-86
2022/04/01 02:44:16;;;;;;;;;;;;;;;;;;6205174;23;19967;-86
2022/04/01 02:46:43;;;;;;;;;;;;;;;;;;6179887;23;19916;-86
2022/04/01 02:49:11;;;;;;;;;;;;;;;;;;6180462;23;19920;-86
2022/04/01 02:51:38;;;;;;;;;;;;;;;;;;6181401;23;19974;-86
2022/04/01 02:54:05;;;;;;;;;;;;;;;;;;6183389;23;19931;-87
2022/04/01 02:56:35;;;;;;;;;;;;;;;;;;6208812;23;20619;-87
2022/04/01 02:59:02;;;;;;;;;;;;;;;;;;6182559;23;19920;-86
2022/04/01 03:01:30;;;;;;;;;;;;;;;;;;6207193;23;19970;-85
2022/04/01 03:03:58;;;;;;;;;;;;;;;;;;6182276;23;20330;-86
2022/04/01 03:06:26;;;;;;;;;;;;;;;;;;6182266;23;19927;-85
2022/04/01 03:09:29;;;;;;;;;;;;;;;;;;6175219;23;20011;-85
2022/04/01 03:12:01;;;;;;;;;;;;;;;;;;6175450;23;19916;-85
2022/04/01 03:14:29;;;;;;;;;;;;;;;;;;6175301;23;20354;-85
2022/04/01 03:16:57;;;;;;;;;;;;;;;;;;6125865;23;19991;-86
2022/04/01 03:19:25;;;;;;;;;;;;;;;;;;6150075;23;20361;-85
2022/04/01 03:21:52;;;;;;;;;;;;;;;;;;6124331;23;19983;-86
2022/04/01 03:24:20;;;;;;;;;;;;;;;;;;6147203;23;19920;-86
2022/04/01 03:27:05;;;;;;;;;;;;;;;;;;6149949;23;20746;-85
2022/04/01 03:29:38;;;;;;;;;;;;;;;;;;6122305;23;19975;-85
2022/04/01 03:32:05;;;;;;;;;;;;;;;;;;6123246;23;19920;-86
2022/04/01 03:34:35;;;;;;;;;;;;;;;;;;6173324;23;19980;-85
2022/04/01 03:37:08;;;;;;;;;;;;;;;;;;6124962;23;19931;-86
2022/04/01 03:39:35;;;;;;;;;;;;;;;;;;6123472;23;20405;-86
2022/04/01 03:42:06;;;;;;;;;;;;;;;;;;6149653;23;20031;-85
2022/04/01 03:44:47;;;;;;;;;;;;;;;;;;6114380;23;19921;-86
2022/04/01 03:47:15;;;;;;;;;;;;;;;;;;6089309;23;20357;-86
2022/04/01 03:49:42;;;;;;;;;;;;;;;;;;6114418;23;19917;-85
2022/04/01 03:52:24;;;;;;;;;;;;;;;;;;6061431;23;19921;-86
2022/04/01 03:54:52;;;;;;;;;;;;;;;;;;6084963;23;20353;-85
2022/04/01 03:57:19;;;;;;;;;;;;;;;;;;6085084;23;19933;-85
2022/04/01 03:59:52;;;;;;;;;;;;;;;;;;6083714;23;20291;-86
2022/04/01 04:02:20;;;;;;;;;;;;;;;;;;6082737;23;19992;-87
2022/04/01 04:04:48;;;;;;;;;;;;;;;;;;6083656;23;19921;-86
2022/04/01 04:07:16;;;;;;;;;;;;;;;;;;6083382;23;19928;-86
2022/04/01 04:09:58;;;;;;;;;;;;;;;;;;6084299;23;19982;-86
2022/04/01 04:12:25;;;;;;;;;;;;;;;;;;6082938;23;20341;-85
2022/04/01 04:14:53;;;;;;;;;;;;;;;;;;6090605;23;19928;-86
2022/04/01 04:17:20;;;;;;;;;;;;;;;;;;6117375;23;19955;-86
2022/04/01 04:19:47;;;;;;;;;;;;;;;;;;6117516;23;19921;-87
2022/04/01 04:22:14;;;;;;;;;;;;;;;;;;6136433;23;19920;-86
2022/04/01 04:24:42;;;;;;;;;;;;;;;;;;6179166;23;19916;-86
2022/04/01 04:27:10;;;;;;;;;;;;;;;;;;6179328;23;19919;-86
2022/04/01 04:29:39;;;;;;;;;;;;;;;;;;6180157;23;19915;-87
2022/04/01 04:32:06;;;;;;;;;;;;;;;;;;6179022;23;19920;-87
2022/04/01 04:34:43;;;;;;;;;;;;;;;;;;6204808;23;19970;-87
2022/04/01 04:37:11;;;;;;;;;;;;;;;;;;6179843;23;20034;-86
2022/04/01 04:39:39;;;;;;;;;;;;;;;;;;6179882;23;19923;-86
2022/04/01 04:42:07;;;;;;;;;;;;;;;;;;6178861;23;19947;-86
2022/04/01 04:44:35;;;;;;;;;;;;;;;;;;6179590;23;19920;-86
2022/04/01 04:47:05;;;;;;;;;;;;;;;;;;6178775;23;19920;-87
2022/04/01 04:49:33;;;;;;;;;;;;;;;;;;6178530;23;19994;-86
2022/04/01 04:52:15;;;;;;;;;;;;;;;;;;6137541;23;20254;-86
2022/04/01 04:54:48;;;;;;;;;;;;;;;;;;6141744;23;19979;-86
2022/04/01 04:57:15;;;;;;;;;;;;;;;;;;6141376;23;20274;-85
2022/04/01 04:59:42;;;;;;;;;;;;;;;;;;6091246;23;19917;-86
2022/04/01 05:02:10;;;;;;;;;;;;;;;;;;6114752;23;19991;-85
2022/04/01 05:04:39;;;;;;;;;;;;;;;;;;6116285;23;19937;-85
2022/04/01 05:07:08;;;;;;;;;;;;;;;;;;6091461;23;19921;-86
2022/04/01 05:09:54;;;;;;;;;;;;;;;;;;6121517;23;20401;-86
2022/04/01 05:12:21;;;;;;;;;;;;;;;;;;6120976;23;19948;-87
2022/04/01 05:14:49;;;;;;;;;;;;;;;;;;6121460;23;19927;-86
2022/04/01 05:17:16;;;;;;;;;;;;;;;;;;6144978;23;20337;-87
2022/04/01 05:19:43;;;;;;;;;;;;;;;;;;6120290;23;19932;-86
2022/04/01 05:22:11;;;;;;;;;;;;;;;;;;6119124;23;20021;-86
2022/04/01 05:24:38;;;;;;;;;;;;;;;;;;6171250;23;19932;-86
2022/04/01 05:27:07;;;;;;;;;;;;;;;;;;6147264;23;19920;-86
2022/04/01 05:29:35;;;;;;;;;;;;;;;;;;6122647;23;19927;-86
2022/04/01 05:32:03;;;;;;;;;;;;;;;;;;6123532;23;19931;-86
2022/04/01 05:34:49;;;;;;;;;;;;;;;;;;6148683;23;19924;-86
2022/04/01 05:37:29;;;;;;;;;;;;;;;;;;6170313;23;19977;-86
2022/04/01 05:39:56;;;;;;;;;;;;;;;;;;6121739;23;19920;-87
2022/04/01 05:42:23;;;;;;;;;;;;;;;;;;6122352;23;19921;-88
2022/04/01 05:44:54;;;;;;;;;;;;;;;;;;6174898;23;19924;-88
2022/04/01 05:47:21;;;;;;;;;;;;;;;;;;6149445;23;20309;-88
2022/04/01 05:49:48;;;;;;;;;;;;;;;;;;6124029;23;19952;-88
2022/04/01 05:52:16;;;;;;;;;;;;;;;;;;6171301;23;19966;-87
2022/04/01 05:54:43;;;;;;;;;;;;;;;;;;6146836;23;20066;-89
2022/04/01 05:57:11;;;;;;;;;;;;;;;;;;6174893;23;20253;-88
2022/04/01 05:59:38;;;;;;;;;;;;;;;;;;6175105;23;20405;-87
2022/04/01 06:02:05;;;;;;;;;;;;;;;;;;6176888;23;19920;-87
2022/04/01 06:04:32;;;;;;;;;;;;;;;;;;6178917;23;19994;-87
2022/04/01 06:06:58;;;;;;;;;;;;;;;;;;6179504;23;19916;-87
2022/04/01 06:09:24;;;;;;;;;;;;;;;;;;6177354;23;19927;-87
2022/04/01 06:11:57;;;;;;;;;;;;;;;;;;6178285;23;19923;-88
2022/04/01 06:14:25;;;;;;;;;;;;;;;;;;6179195;23;19944;-87
2022/04/01 06:16:52;;;;;;;;;;;;;;;;;;6179766;23;19920;-89
2022/04/01 06:19:19;;;;;;;;;;;;;;;;;;6178954;23;19916;-86
2022/04/01 06:21:47;;;;;;;;;;;;;;;;;;6178839;23;19931;-87
2022/04/01 06:24:15;;;;;;;;;;;;;;;;;;6180329;23;20006;-87
2022/04/01 06:26:42;;;;;;;;;;;;;;;;;;6180145;23;19991;-87
2022/04/01 06:29:09;;;;;;;;;;;;;;;;;;6178850;23;19926;-88
2022/04/01 06:31:37;;;;;;;;;;;;;;;;;;6178830;23;19924;-88
2022/04/01 06:34:04;;;;;;;;;;;;;;;;;;6179392;23;19924;-87
2022/04/01 06:36:34;;;;;;;;;;;;;;;;;;6179551;23;19996;-87
2022/04/01 06:39:01;;;;;;;;;;;;;;;;;;6178557;23;20341;-87
2022/04/01 06:41:28;;;;;;;;;;;;;;;;;;6177595;23;19920;-88
2022/04/01 06:43:58;;;;;;;;;;;;;;;;;;6203192;23;19917;-88
2022/04/01 06:46:26;;;;;;;;;;;;;;;;;;6200351;23;19916;-87
2022/04/01 06:48:53;;;;;;;;;;;;;;;;;;6176298;23;19924;-87
2022/04/01 06:51:20;;;;;;;;;;;;;;;;;;6177051;23;19916;-88
2022/04/01 06:53:57;;;;;;;;;;;;;;;;;;6201221;23;20360;-88
2022/04/01 06:56:24;;;;;;;;;;;;;;;;;;6177064;23;20028;-88
2022/04/01 06:58:50;;;;;;;;;;;;;;;;;;6176913;23;19975;-87
2022/04/01 07:01:20;;;;;;;;;;;;;;;;;;6177341;23;19920;-88
2022/04/01 07:03:48;;;;;;;;;;;;;;;;;;6178003;23;19920;-88
2022/04/01 07:06:24;;;;;;;;;;;;;;;;;;6200836;23;20392;-88
2022/04/01 07:08:51;;;;;;;;;;;;;;;;;;6178457;23;19916;-88
2022/04/01 07:11:19;;;;;;;;;;;;;;;;;;6176725;23;20230;-88
2022/04/01 07:13:49;;;;;;;;;;;;;;;;;;6177539;23;19920;-88
2022/04/01 07:16:16;;;;;;;;;;;;;;;;;;6176720;23;20387;-88
2022/04/01 07:18:57;;;;;;;;;;;;;;;;;;6145798;23;20413;-87
2022/04/01 07:21:24;;;;;;;;;;;;;;;;;;6121325;23;20393;-87
2022/04/01 07:23:52;;;;;;;;;;;;;;;;;;6098278;23;19921;-88
2022/04/01 07:26:20;;;;;;;;;;;;;;;;;;6123339;23;19920;-87
2022/04/01 07:28:47;;;;;;;;;;;;;;;;;;6094536;23;20290;-87
2022/04/01 07:34:06;;;;;;;;;;;;;;;;;;6122749;23;19932;-87
2022/04/01 07:36:33;;;;;;;;;;;;;;;;;;6097150;23;20145;-86
2022/04/01 07:39:00;;;;;;;;;;;;;;;;;;6123522;23;19974;-87
2022/04/01 07:41:29;;;;;;;;;;;;;;;;;;6122752;23;20338;-86
2022/04/01 07:43:57;;;;;;;;;;;;;;;;;;6123210;23;19921;-86
2022/04/01 07:46:24;;;;;;;;;;;;;;;;;;6123175;23;20243;-86
2022/04/01 07:48:51;;;;;;;;;;;;;;;;;;6125325;23;19963;-86
2022/04/01 07:51:18;;;;;;;;;;;;;;;;;;6178452;23;19920;-86
2022/04/01 07:53:46;;;;;;;;;;;;;;;;;;6179974;23;19980;-85
2022/04/01 07:56:13;;;;;;;;;;;;;;;;;;6179794;23;19920;-86
2022/04/01 07:58:40;;;;;;;;;;;;;;;;;;6179501;23;19920;-86
2022/04/01 08:01:07;;;;;;;;;;;;;;;;;;6178641;23;19958;-87
2022/04/01 08:03:34;;;;;;;;;;;;;;;;;;6180123;23;20225;-87
2022/04/01 08:06:20;;;;;;;;;;;;;;;;;;6181768;23;19920;-87
2022/04/01 08:09:06;;;;;;;;;;;;;;;;;;6152958;23;19920;-87
2022/04/01 08:11:34;;;;;;;;;;;;;;;;;;6128355;23;19924;-86
2022/04/01 08:14:00;;;;;;;;;;;;;;;;;;6127699;23;19986;-86
2022/04/01 08:16:27;;;;;;;;;;;;;;;;;;6152693;23;19920;-86
2022/04/01 08:18:53;;;;;;;;;;;;;;;;;;6128946;23;19980;-85
2022/04/01 08:21:21;;;;;;;;;;;;;;;;;;6127477;23;19939;-85
2022/04/01 08:23:48;;;;;;;;;;;;;;;;;;6152856;23;19966;-86
2022/04/01 08:26:15;;;;;;;;;;;;;;;;;;6153107;23;19987;-86
2022/04/01 08:28:57;;;;;;;;;;;;;;;;;;6178432;23;19996;-86
2022/04/01 08:31:43;;;;;;;;;;;;;;;;;;6156055;23;19923;-87
2022/04/01 08:34:10;;;;;;;;;;;;;;;;;;6127172;23;19923;-86
2022/04/01 08:36:36;;;;;;;;;;;;;;;;;;6153243;23;19921;-86
2022/04/01 08:39:17;;;;;;;;;;;;;;;;;;6149231;23;19917;-86
2022/04/01 08:41:45;;;;;;;;;;;;;;;;;;6124904;23;19920;-87
2022/04/01 08:44:12;;;;;;;;;;;;;;;;;;6124400;23;19970;-87
2022/04/01 08:46:39;;;;;;;;;;;;;;;;;;6125185;23;19917;-86
2022/04/01 08:49:06;;;;;;;;;;;;;;;;;;6124961;23;19988;-87
2022/04/01 08:51:34;;;;;;;;;;;;;;;;;;6149754;23;19925;-86
2022/04/01 08:54:02;;;;;;;;;;;;;;;;;;6124821;23;19920;-86
2022/04/01 08:56:29;;;;;;;;;;;;;;;;;;6124317;23;19987;-87
2022/04/01 08:58:56;;;;;;;;;;;;;;;;;;6133678;23;19923;-87
2022/04/01 09:01:39;;;;;;;;;;;;;;;;;;6179227;23;20273;-86
2022/04/01 09:04:07;;;;;;;;;;;;;;;;;;6129407;23;19995;-87
2022/04/01 09:06:34;;;;;;;;;;;;;;;;;;6154479;23;19942;-87
2022/04/01 09:09:01;;;;;;;;;;;;;;;;;;6129875;23;19963;-87
2022/04/01 09:11:31;;;;;;;;;;;;;;;;;;6155423;23;20253;-87
2022/04/01 09:13:59;;;;;;;;;;;;;;;;;;6181067;23;19931;-86
2022/04/01 09:16:27;;;;;;;;;;;;;;;;;;6179220;23;19926;-87
2022/04/01 09:18:55;;;;;;;;;;;;;;;;;;6179731;23;20345;-87
2022/04/01 09:21:22;;;;;;;;;;;;;;;;;;6179828;23;19920;-86
2022/04/01 09:23:49;;;;;;;;;;;;;;;;;;6179169;23;19924;-87
2022/04/01 09:26:16;;;;;;;;;;;;;;;;;;6205570;23;19916;-86
2022/04/01 09:28:44;;;;;;;;;;;;;;;;;;6180458;23;19924;-86
2022/04/01 09:31:11;;;;;;;;;;;;;;;;;;6179321;23;19948;-86
2022/04/01 09:33:37;;;;;;;;;;;;;;;;;;6178664;23;19916;-87
2022/04/01 09:36:04;;;;;;;;;;;;;;;;;;6178431;23;19927;-87
2022/04/01 09:38:32;;;;;;;;;;;;;;;;;;6179220;23;19920;-87
2022/04/01 09:40:59;;;;;;;;;;;;;;;;;;6178802;23;19916;-86
2022/04/01 09:43:26;;;;;;;;;;;;;;;;;;6179747;23;19920;-87
2022/04/01 09:46:12;;;;;;;;;;;;;;;;;;6201501;23;20352;-87
2022/04/01 09:48:40;;;;;;;;;;;;;;;;;;6180155;23;20020;-88
2022/04/01 09:51:07;;;;;;;;;;;;;;;;;;6179969;23;19967;-87
2022/04/01 09:53:35;;;;;;;;;;;;;;;;;;6179940;23;19920;-87
2022/04/01 09:56:02;;;;;;;;;;;;;;;;;;6180272;23;19967;-87
2022/04/01 09:58:29;;;;;;;;;;;;;;;;;;6180413;23;19916;-86
2022/04/01 10:00:57;;;;;;;;;;;;;;;;;;6179832;23;19983;-86
2022/04/01 10:03:23;;;;;;;;;;;;;;;;;;6179817;23;19955;-86
2022/04/01 10:05:56;;;;;;;;;;;;;;;;;;6180706;23;20249;-87
2022/04/01 10:08:22;;;;;;;;;;;;;;;;;;6180104;23;19931;-86
2022/04/01 10:10:50;;;;;;;;;;;;;;;;;;6179542;23;19955;-86
2022/04/01 10:13:17;;;;;;;;;;;;;;;;;;6179960;23;19916;-86
2022/04/01 10:15:44;;;;;;;;;;;;;;;;;;6179803;23;20341;-86
2022/04/01 10:18:11;;;;;;;;;;;;;;;;;;6179741;23;19916;-86
2022/04/01 10:20:39;;;;;;;;;;;;;;;;;;6180622;23;19971;-87
2022/04/01 10:23:05;;;;;;;;;;;;;;;;;;6179270;23;19967;-86
2022/04/01 10:25:32;;;;;;;;;;;;;;;;;;6178280;23;20393;-87
2022/04/01 10:28:02;;;;;;;;;;;;;;;;;;6178848;23;20326;-87
2022/04/01 10:30:31;;;;;;;;;;;;;;;;;;6178323;23;19927;-87
2022/04/01 10:33:15;;;;;;;;;;;;;;;;;;6180463;23;20051;-85
2022/04/01 10:35:43;;;;;;;;;;;;;;;;;;6177817;23;19931;-85
2022/04/01 10:38:14;;;;;;;;;;;;;;;;;;6178335;23;20373;-86
2022/04/01 10:40:41;;;;;;;;;;;;;;;;;;6177840;23;19947;-86
2022/04/01 10:43:08;;;;;;;;;;;;;;;;;;6176134;23;19999;-86
2022/04/01 10:45:35;;;;;;;;;;;;;;;;;;6176820;23;19927;-86
2022/04/01 10:53:38;;;;;;;;;;;;;;;;;;6177443;23;19998;-86
2022/04/01 10:56:05;;;;;;;;;;;;;;;;;;6176482;23;20234;-86
2022/04/01 10:58:32;;;;;;;;;;;;;;;;;;6179893;23;19920;-86
2022/04/01 11:01:00;;;;;;;;;;;;;;;;;;6180022;23;19916;-86
2022/04/01 11:03:26;;;;;;;;;;;;;;;;;;6179026;23;19951;-86
2022/04/01 11:06:12;;;;;;;;;;;;;;;;;;6200172;23;19955;-86
2022/04/01 11:08:40;;;;;;;;;;;;;;;;;;6180273;23;20342;-86
2022/04/01 11:11:07;;;;;;;;;;;;;;;;;;6179151;23;20227;-87
2022/04/01 11:13:50;;;;;;;;;;;;;;;;;;6140617;23;19924;-87
2022/04/01 11:16:19;;;;;;;;;;;;;;;;;;6094575;23;19957;-86
2022/04/01 11:18:46;;;;;;;;;;;;;;;;;;6092377;23;19927;-86
2022/04/01 11:21:13;;;;;;;;;;;;;;;;;;6093239;23;19925;-86
2022/04/01 11:23:41;;;;;;;;;;;;;;;;;;6094230;23;19985;-86
2022/04/01 11:26:08;;;;;;;;;;;;;;;;;;6094708;23;19920;-87
2022/04/01 11:28:35;;;;;;;;;;;;;;;;;;6094473;23;19917;-87
2022/04/01 11:31:02;;;;;;;;;;;;;;;;;;6093980;23;19921;-87
2022/04/01 11:33:28;;;;;;;;;;;;;;;;;;6094300;23;20005;-87
2022/04/01 11:35:57;;;;;;;;;;;;;;;;;;6093587;23;19925;-87
2022/04/01 11:38:24;;;;;;;;;;;;;;;;;;6093439;23;19959;-86
2022/04/01 11:40:53;;;;;;;;;;;;;;;;;;6090802;23;19927;-86
2022/04/01 11:43:23;;;;;;;;;;;;;;;;;;6092522;23;19960;-86
2022/04/01 11:46:09;;;;;;;;;;;;;;;;;;6123975;23;20246;-86
2022/04/01 11:48:37;;;;;;;;;;;;;;;;;;6123487;23;19921;-86
2022/04/01 11:51:04;;;;;;;;;;;;;;;;;;6123237;23;19964;-87
2022/04/01 11:53:31;;;;;;;;;;;;;;;;;;6100035;23;19916;-86
2022/04/01 11:56:16;;;;;;;;;;;;;;;;;;6127237;23;20067;-86
2022/04/01 11:58:57;;;;;;;;;;;;;;;;;;6068624;23;19959;-86
2022/04/01 12:01:24;;;;;;;;;;;;;;;;;;6087584;23;19921;-86
2022/04/01 12:03:51;;;;;;;;;;;;;;;;;;6065415;23;19933;-86
2022/04/01 12:09:06;;;;;;;;;;;;;;;;;;6065161;23;19929;-87
2022/04/01 12:11:33;;;;;;;;;;;;;;;;;;6088843;23;19928;-87
2022/04/01 12:14:00;;;;;;;;;;;;;;;;;;6065330;23;20008;-86
2022/04/01 12:16:27;;;;;;;;;;;;;;;;;;6089111;23;19922;-86
2022/04/01 12:18:54;;;;;;;;;;;;;;;;;;6065517;23;19945;-86
2022/04/01 12:21:22;;;;;;;;;;;;;;;;;;6090620;23;20330;-86
2022/04/01 12:23:49;;;;;;;;;;;;;;;;;;6087716;23;20456;-86
2022/04/01 12:26:16;;;;;;;;;;;;;;;;;;6089900;23;20331;-86
2022/04/01 12:28:44;;;;;;;;;;;;;;;;;;6090641;23;20048;-86
2022/04/01 12:31:11;;;;;;;;;;;;;;;;;;6100938;23;20354;-86
2022/04/01 12:33:38;;;;;;;;;;;;;;;;;;6125349;23;19931;-87
2022/04/01 12:36:05;;;;;;;;;;;;;;;;;;6114300;23;19991;-86
2022/04/01 12:38:33;;;;;;;;;;;;;;;;;;6159891;23;19962;-86
2022/04/01 12:41:00;;;;;;;;;;;;;;;;;;6212439;23;20358;-86
2022/04/01 12:43:27;;;;;;;;;;;;;;;;;;6185712;23;19983;-86
2022/04/01 12:45:53;;;;;;;;;;;;;;;;;;6185531;23;19962;-86
2022/04/01 12:48:28;;;;;;;;;;;;;;;;;;6185780;23;20000;-86
2022/04/01 12:50:55;;;;;;;;;;;;;;;;;;6185682;23;19948;-86
2022/04/01 12:53:22;;;;;;;;;;;;;;;;;;6184980;23;20628;-86
2022/04/01 12:55:50;;;;;;;;;;;;;;;;;;6185479;23;19927;-86
2022/04/01 12:58:17;;;;;;;;;;;;;;;;;;6185082;23;19965;-86
2022/04/01 13:00:44;;;;;;;;;;;;;;;;;;6186415;23;20005;-86
2022/04/01 13:03:11;;;;;;;;;;;;;;;;;;6184623;23;19916;-86
2022/04/01 13:05:52;;;;;;;;;;;;;;;;;;6150179;23;19952;-87
2022/04/01 13:08:18;;;;;;;;;;;;;;;;;;6124786;23;20342;-85
2022/04/01 13:10:46;;;;;;;;;;;;;;;;;;6123829;23;19940;-85
2022/04/01 13:13:13;;;;;;;;;;;;;;;;;;6122950;23;19955;-86
2022/04/01 13:15:40;;;;;;;;;;;;;;;;;;6121165;23;19921;-86
2022/04/01 13:18:08;;;;;;;;;;;;;;;;;;6122486;23;20370;-86
2022/04/01 13:20:38;;;;;;;;;;;;;;;;;;6123037;23;19916;-86
2022/04/01 13:23:06;;;;;;;;;;;;;;;;;;6123365;23;19916;-86
2022/04/01 13:25:33;;;;;;;;;;;;;;;;;;6124071;23;19928;-85
2022/04/01 13:28:00;;;;;;;;;;;;;;;;;;6125308;23;19924;-86
2022/04/01 13:30:28;;;;;;;;;;;;;;;;;;6147234;23;19916;-85
2022/04/01 13:32:56;;;;;;;;;;;;;;;;;;6124914;23;20338;-85
2022/04/01 13:35:24;;;;;;;;;;;;;;;;;;6124049;23;20003;-85
2022/04/01 13:38:10;;;;;;;;;;;;;;;;;;6094364;23;19920;-85
2022/04/01 13:40:55;;;;;;;;;;;;;;;;;;6098247;23;20319;-85
2022/04/01 13:43:36;;;;;;;;;;;;;;;;;;6062494;23;19925;-85
2022/04/01 13:46:02;;;;;;;;;;;;;;;;;;6086511;23;20401;-85
2022/04/01 13:48:34;;;;;;;;;;;;;;;;;;6064863;23;19921;-85
2022/04/01 13:51:02;;;;;;;;;;;;;;;;;;6037843;23;19924;-86
2022/04/01 13:53:34;;;;;;;;;;;;;;;;;;6062829;23;19928;-87
2022/04/01 13:56:05;;;;;;;;;;;;;;;;;;6062730;23;19921;-88
2022/04/01 13:58:37;;;;;;;;;;;;;;;;;;6040780;23;19922;-86
2022/04/01 14:01:14;;;;;;;;;;;;;;;;;;;;;
2022/04/01 14:03:55;;;;;;;;;;;;;;;;;;6097550;23;19921;-87
2022/04/01 14:06:26;;;;;;;;;;;;;;;;;;5972078;23;20407;-86
2022/04/01 14:09:00;;;;;;;;;;;;;;;;;;6002121;23;19918;-86
2022/04/01 14:11:36;;;;;;;;;;;;;;;;;;6023202;23;19993;-86
2022/04/01 14:14:05;;;;;;;;;;;;;;;;;;5978066;23;19969;-85
2022/04/01 14:16:42;;;;;;;;;;;;;;;;;;6006521;23;19918;-85
2022/04/01 14:19:08;;;;;;;;;;;;;;;;;;6006821;23;19917;-84
2022/04/01 14:21:40;;;;;;;;;;;;;;;;;;6005420;23;19993;-85
2022/04/01 14:24:22;;;;;;;;;;;;;;;;;;6030066;23;20089;-85
2022/04/01 14:26:49;;;;;;;;;;;;;;;;;;6004760;23;20018;-84
2022/04/01 14:32:04;;;;;;;;;;;;;;;;;;6060806;23;19921;-85
2022/04/01 14:34:41;;;;;;;;;;;;;;;;;;6065007;23;19976;-85
2022/04/01 14:37:14;;;;;;;;;;;;;;;;;;6074310;23;20663;-85
2022/04/01 14:39:42;;;;;;;;;;;;;;;;;;6128407;23;19920;-84
2022/04/01 14:42:15;;;;;;;;;;;;;;;;;;6152898;23;19995;-85
2022/04/01 14:44:55;;;;;;;;;;;;;;;;;;6174799;23;19926;-85
2022/04/01 14:47:46;;;;;;;;;;;;;;;;;;6139777;23;19927;-85
2022/04/01 14:50:14;;;;;;;;;;;;;;;;;;6150877;23;19952;-84
2022/04/01 14:52:43;;;;;;;;;;;;;;;;;;6151703;23;19949;-84
2022/04/01 14:55:20;;;;;;;;;;;;;;;;;;6151966;23;19928;-85
2022/04/01 14:57:47;;;;;;;;;;;;;;;;;;6153766;23;19916;-84
2022/04/01 15:00:15;;;;;;;;;;;;;;;;;;6151776;23;19959;-84
2022/04/01 15:02:43;;;;;;;;;;;;;;;;;;6151274;23;19920;-84
2022/04/01 15:05:13;;;;;;;;;;;;;;;;;;6152861;23;19916;-85
2022/04/01 15:07:42;;;;;;;;;;;;;;;;;;6152344;23;19927;-85
2022/04/01 15:10:10;;;;;;;;;;;;;;;;;;6150239;23;20349;-85
2022/04/01 15:12:40;;;;;;;;;;;;;;;;;;6152750;23;19923;-84
2022/04/01 15:15:07;;;;;;;;;;;;;;;;;;6152834;23;19987;-85
2022/04/01 15:17:33;;;;;;;;;;;;;;;;;;6150041;23;19921;-85
2022/04/01 15:19:59;;;;;;;;;;;;;;;;;;6150632;23;19920;-86
2022/04/01 15:22:27;;;;;;;;;;;;;;;;;;6151112;23;19916;-85
2022/04/01 15:24:58;;;;;;;;;;;;;;;;;;6152080;23;20496;-86
2022/04/01 15:27:25;;;;;;;;;;;;;;;;;;6199896;23;19920;-85
2022/04/01 15:29:53;;;;;;;;;;;;;;;;;;6174247;23;19924;-86
2022/04/01 15:32:20;;;;;;;;;;;;;;;;;;6176325;23;19916;-85
2022/04/01 15:35:01;;;;;;;;;;;;;;;;;;6056808;23;19949;-85
2022/04/01 15:37:29;;;;;;;;;;;;;;;;;;6032607;23;20455;-85
2022/04/01 15:40:00;;;;;;;;;;;;;;;;;;6008909;23;20188;-85
2022/04/01 15:42:27;;;;;;;;;;;;;;;;;;6056743;23;19921;-85
2022/04/01 15:44:55;;;;;;;;;;;;;;;;;;6033840;23;19997;-85
2022/04/01 15:47:38;;;;;;;;;;;;;;;;;;6057415;23;19929;-85
2022/04/01 15:50:06;;;;;;;;;;;;;;;;;;6035772;23;20000;-84
2022/04/01 15:52:34;;;;;;;;;;;;;;;;;;6034638;23;20334;-85
2022/04/01 15:55:02;;;;;;;;;;;;;;;;;;6034329;23;19926;-85
2022/04/01 15:57:29;;;;;;;;;;;;;;;;;;6035610;23;19976;-85
2022/04/01 15:59:57;;;;;;;;;;;;;;;;;;6034674;23;19985;-85
2022/04/01 16:02:24;;;;;;;;;;;;;;;;;;6032948;23;20478;-86
2022/04/01 16:04:55;;;;;;;;;;;;;;;;;;6056608;23;19972;-85
2022/04/01 16:07:22;;;;;;;;;;;;;;;;;;6034165;23;19925;-85
2022/04/01 16:09:50;;;;;;;;;;;;;;;;;;6034327;23;20343;-85
2022/04/01 16:12:17;;;;;;;;;;;;;;;;;;6085487;23;19920;-85
2022/04/01 16:14:51;;;;;;;;;;;;;;;;;;6200287;23;19963;-85
2022/04/01 16:17:19;;;;;;;;;;;;;;;;;;6174651;23;20266;-85
2022/04/01 16:19:46;;;;;;;;;;;;;;;;;;6181511;23;19927;-85
2022/04/01 16:22:15;;;;;;;;;;;;;;;;;;6182331;23;20018;-86
2022/04/01 16:24:41;;;;;;;;;;;;;;;;;;6181242;23;19958;-85
2022/04/01 16:27:08;;;;;;;;;;;;;;;;;;6180406;23;20341;-85
2022/04/01 16:29:36;;;;;;;;;;;;;;;;;;6180074;23;19924;-86
2022/04/01 16:32:03;;;;;;;;;;;;;;;;;;6181920;23;20008;-85
2022/04/01 16:34:33;;;;;;;;;;;;;;;;;;6206769;23;19924;-86
2022/04/01 16:37:13;;;;;;;;;;;;;;;;;;6181055;23;19919;-84
2022/04/01 16:39:39;;;;;;;;;;;;;;;;;;6183270;23;19920;-85
2022/04/01 16:42:07;;;;;;;;;;;;;;;;;;6181061;23;19919;-86
2022/04/01 16:44:34;;;;;;;;;;;;;;;;;;6181430;23;19916;-85
2022/04/01 16:47:22;;;;;;;;;;;;;;;;;;6173882;23;20090;-85
2022/04/01 16:49:50;;;;;;;;;;;;;;;;;;6150315;23;19916;-85
2022/04/01 16:52:21;;;;;;;;;;;;;;;;;;6149683;23;19917;-84
2022/04/01 16:54:54;;;;;;;;;;;;;;;;;;6174924;23;19927;-85
2022/04/01 16:57:21;;;;;;;;;;;;;;;;;;6125970;23;20431;-84
2022/04/01 16:59:49;;;;;;;;;;;;;;;;;;6149636;23;20448;-85
2022/04/01 17:02:31;;;;;;;;;;;;;;;;;;6174353;23;20428;-85
2022/04/01 17:04:59;;;;;;;;;;;;;;;;;;6150215;23;19920;-84
2022/04/01 17:13:17;;;;;;;;;;;;;;;;;;6149379;23;19927;-86
2022/04/01 17:15:45;;;;;;;;;;;;;;;;;;6121115;23;19931;-84
2022/04/01 17:18:13;;;;;;;;;;;;;;;;;;6148755;23;19921;-85
2022/04/01 17:20:44;;;;;;;;;;;;;;;;;;6148306;23;20313;-86
2022/04/01 17:23:11;;;;;;;;;;;;;;;;;;6122550;23;20042;-85